Disclaimer

Please do not use the information listed here in-flight or in-navigation, as they are not provided to us by the airports but are provided by volunteers, so they might be outdated.

Search


Regions


Airport information page

Radio informations:
Tower (TWR) - 118.1 MHz
Automatic Terminal Information Service (ATIS) - 126.2 MHz
Approach (APP) - 119.1 MHz
INFO - 3476 MHz

Airport informations:
Latitude: 20° 25' 48.84" S
Longitude: 057° 41' 00.96" E
Elevation: 186 feet - 57 meters
Operating hours: Remarks
Operating agency: Civil government, landing fees and diplomatic clearance may be required
Timezone: UTC+4
Fuel: Jet A1, without icing nhibitor.

115/145 octane gasoline, leaded, MIL-L-5572F (PURPLE)

Runway information:
14/32 - 11056 x 148 feet< - >3370 x 45 meters

Recent METARs:
FIMP 160200Z 11014KT 9999 VCSH SCT015 25/20 Q1017
FIMP 160200Z 11014KT 9999 VCSH SCT015 25/20 Q1017
FIMP 160300Z 10014KT 9999 SCT015 27/20 Q1018

Airport on the map: